Time;durP1;ratioP1;P1;durP2;ratioP2;P2;SDS_P1;SDS_P2;PMS_P1;PMS_P2;Temp;Humidity;BMP_temperature;BMP_pressure;BME280_temperature;BME280_humidity;BME280_pressure;Samples;Min_cycle;Max_cycle;Signal;HPM_P1;HPM_P2
2021/10/19 00:00:25;;;;;;;19.50;8.52;;;11.90;99.90;;;12.55;74.87;101764.00;5066317;28;20254;-70
2021/10/19 00:02:52;;;;;;;18.00;8.15;;;11.90;99.90;;;12.54;74.83;101772.78;5063033;28;20192;-70
2021/10/19 00:05:20;;;;;;;20.17;9.23;;;11.90;99.90;;;12.51;74.99;101781.59;5067530;28;20649;-70
2021/10/19 00:07:47;;;;;;;17.13;8.65;;;11.90;99.90;;;12.50;74.98;101787.75;5064668;28;20192;-72
2021/10/19 00:10:15;;;;;;;15.48;7.65;;;11.90;99.90;;;12.46;75.08;101787.88;5063275;28;20658;-70
2021/10/19 00:12:42;;;;;;;15.60;7.55;;;11.90;99.90;;;12.45;75.14;101784.41;5069582;28;20192;-70
2021/10/19 00:15:13;;;;;;;17.98;7.03;;;11.90;99.90;;;12.47;75.28;101793.06;5069569;28;20204;-70
2021/10/19 00:17:42;;;;;;;16.33;8.07;;;11.90;99.90;;;12.45;75.42;101789.66;5078290;28;20200;-71
2021/10/19 00:20:12;;;;;;;19.05;9.05;;;11.90;99.90;;;12.44;75.64;101793.16;5062292;28;20216;-71
2021/10/19 00:22:41;;;;;;;16.85;8.15;;;11.90;99.90;;;12.41;75.41;101788.00;5064715;28;20196;-70
2021/10/19 00:25:14;;;;;;;19.13;8.95;;;11.90;99.90;;;12.42;75.39;101768.72;5067608;28;20215;-71
2021/10/19 00:27:42;;;;;;;18.15;8.07;;;11.90;99.90;;;12.42;75.09;101767.88;5077909;28;20192;-72
2021/10/19 00:30:11;;;;;;;17.98;8.60;;;11.90;99.90;;;12.42;75.42;101766.09;5069839;28;20282;-71
2021/10/19 00:32:38;;;;;;;19.60;8.27;;;11.90;99.90;;;12.41;75.31;101772.25;5071908;28;20210;-72
2021/10/19 00:35:07;;;;;;;19.42;8.50;;;11.80;99.90;;;12.39;75.32;101770.59;5077302;28;20222;-71
2021/10/19 00:37:34;;;;;;;19.30;8.10;;;11.80;99.90;;;12.36;75.33;101768.91;5076919;28;20207;-72
2021/10/19 00:40:04;;;;;;;17.30;9.05;;;11.80;99.90;;;12.36;75.47;101763.66;5079323;28;20215;-71
2021/10/19 00:42:35;;;;;;;19.88;9.30;;;11.80;99.90;;;12.36;75.71;101763.66;5076696;28;20192;-71
2021/10/19 00:45:04;;;;;;;19.08;8.52;;;11.80;99.90;;;12.35;75.73;101756.69;5079071;28;20214;-71
2021/10/19 00:47:31;;;;;;;16.38;8.55;;;11.70;99.90;;;12.33;76.17;101757.63;5068022;28;20724;-72
2021/10/19 00:49:58;;;;;;;17.95;8.68;;;11.70;99.90;;;12.30;75.92;101734.97;5069429;28;20203;-72
2021/10/19 00:52:25;;;;;;;17.65;8.43;;;11.70;99.90;;;12.30;76.28;101742.84;5066827;28;20207;-70
2021/10/19 00:54:53;;;;;;;18.90;8.93;;;11.70;99.90;;;12.29;76.47;101741.09;5066161;28;20211;-72
2021/10/19 00:57:21;;;;;;;20.27;9.13;;;11.70;99.90;;;12.28;76.53;101747.25;5061304;28;20579;-72
2021/10/19 00:59:49;;;;;;;17.77;8.95;;;11.70;99.90;;;12.28;76.27;101743.75;5073126;28;20203;-74
2021/10/19 01:02:17;;;;;;;19.70;9.57;;;11.70;99.90;;;12.25;76.61;101734.22;5073353;28;20197;-73
2021/10/19 01:04:44;;;;;;;17.90;8.80;;;11.70;99.90;;;12.24;76.48;101721.97;5092953;28;20291;-71
2021/10/19 01:07:13;;;;;;;19.58;8.70;;;11.60;99.90;;;12.22;76.59;101731.66;5075042;28;20196;-72
2021/10/19 01:09:40;;;;;;;19.58;8.10;;;11.60;99.90;;;12.21;76.78;101727.31;5078940;28;20195;-71
2021/10/19 01:12:10;;;;;;;18.58;8.88;;;11.60;99.90;;;12.17;76.73;101727.47;5077710;28;20200;-72
2021/10/19 01:14:38;;;;;;;18.88;9.30;;;11.60;99.90;;;12.14;77.01;101733.63;5076527;28;20243;-73
2021/10/19 01:17:05;;;;;;;17.35;9.13;;;11.50;99.90;;;12.11;77.12;101725.84;5081923;28;20192;-73
2021/10/19 01:19:32;;;;;;;19.00;8.93;;;11.50;99.90;;;12.08;77.33;101727.72;5087883;28;20203;-73
2021/10/19 01:22:04;;;;;;;18.00;9.68;;;11.50;99.90;;;12.06;77.36;101729.50;5064143;28;20262;-73
2021/10/19 01:24:31;;;;;;;18.75;8.70;;;11.50;99.90;;;12.03;77.58;101711.22;5055833;28;20209;-71
2021/10/19 01:26:58;;;;;;;22.23;11.20;;;11.50;99.90;;;12.03;77.61;101712.09;5072699;28;20184;-71
2021/10/19 01:29:25;;;;;;;20.25;10.00;;;11.40;99.90;;;12.02;77.71;101715.59;5055359;28;20253;-71
2021/10/19 01:31:56;;;;;;;18.60;9.15;;;11.40;99.90;;;11.98;77.88;101706.13;5075189;28;20199;-70
2021/10/19 01:34:24;;;;;;;20.27;9.68;;;11.40;99.90;;;11.95;78.26;101700.09;5063772;28;20269;-76
2021/10/19 01:36:51;;;;;;;21.50;11.00;;;11.30;99.90;;;11.94;78.42;101695.75;5069443;28;20217;-73
2021/10/19 01:39:19;;;;;;;22.58;10.57;;;11.30;99.90;;;11.91;78.62;101690.56;5061590;28;20216;-72
2021/10/19 01:41:46;;;;;;;19.13;9.13;;;11.20;99.90;;;11.89;78.62;101695.03;5067895;28;20204;-72
2021/10/19 01:44:14;;;;;;;27.40;11.57;;;11.20;99.90;;;11.86;78.70;101703.81;5067726;28;20203;-71
2021/10/19 01:46:40;;;;;;;21.98;9.88;;;11.20;99.90;;;11.86;78.79;101709.06;5091866;28;20228;-72
2021/10/19 01:49:07;;;;;;;20.02;9.35;;;11.20;99.90;;;11.87;78.82;101705.53;5069815;28;20197;-72
2021/10/19 01:51:34;;;;;;;21.55;10.38;;;11.20;99.90;;;11.87;78.99;101694.19;5064113;28;20204;-72
2021/10/19 01:54:01;;;;;;;24.20;11.00;;;11.20;99.90;;;11.86;79.22;101693.31;5055799;28;20218;-72
2021/10/19 01:56:29;;;;;;;21.10;9.88;;;11.20;99.90;;;11.87;79.23;101695.03;5060793;28;20196;-70
2021/10/19 01:58:56;;;;;;;20.42;9.68;;;11.20;99.90;;;11.88;79.16;101695.91;5057145;28;20245;-71
2021/10/19 02:01:22;;;;;;;21.17;9.85;;;11.30;99.90;;;11.86;79.12;101697.69;5061791;28;20192;-73
2021/10/19 02:03:49;;;;;;;19.88;10.40;;;11.30;99.90;;;11.84;79.25;101710.88;5068659;28;20289;-72
2021/10/19 02:06:16;;;;;;;20.45;10.15;;;11.30;99.90;;;11.84;79.32;101708.25;5070032;28;20269;-72
2021/10/19 02:08:43;;;;;;;21.40;10.25;;;11.30;99.90;;;11.83;79.22;101709.16;5054137;28;20200;-72
2021/10/19 02:11:10;;;;;;;21.00;9.63;;;11.30;99.90;;;11.85;79.44;101690.75;5065110;28;20197;-71
2021/10/19 02:13:38;;;;;;;21.52;9.77;;;11.30;99.90;;;11.82;79.27;101711.81;5063789;28;20222;-72
2021/10/19 02:16:06;;;;;;;20.33;9.85;;;11.30;99.90;;;11.83;79.49;101714.41;5054537;28;20193;-72
2021/10/19 02:18:32;;;;;;;23.40;10.82;;;11.20;99.90;;;11.84;79.65;101715.28;5065518;28;20196;-71
2021/10/19 02:20:59;;;;;;;21.95;10.30;;;11.30;99.90;;;11.86;79.50;101716.94;5061478;28;20208;-74
2021/10/19 02:23:26;;;;;;;19.08;9.63;;;11.30;99.90;;;11.87;79.89;101718.63;5055104;28;20755;-71
2021/10/19 02:25:53;;;;;;;23.67;10.70;;;11.30;99.90;;;11.86;79.55;101706.44;5066239;28;20269;-72
2021/10/19 02:28:19;;;;;;;21.02;10.43;;;11.30;99.90;;;11.86;79.67;101703.81;5069392;28;20230;-73
2021/10/19 02:30:49;;;;;;;22.60;9.80;;;11.30;99.90;;;11.88;79.18;101693.28;5057487;28;20200;-71
2021/10/19 02:33:16;;;;;;;22.77;10.90;;;11.30;99.90;;;11.87;79.53;101695.03;5079056;28;20195;-72
2021/10/19 02:35:43;;;;;;;23.45;11.07;;;11.30;99.90;;;11.85;79.57;101696.00;5057456;28;20246;-73
2021/10/19 02:38:10;;;;;;;26.45;10.75;;;11.30;99.90;;;11.83;79.62;101693.41;5061660;28;20200;-70
2021/10/19 02:40:37;;;;;;;22.90;10.85;;;11.30;99.90;;;11.85;79.55;101682.88;5056545;28;20204;-70
2021/10/19 02:43:04;;;;;;;21.70;11.30;;;11.30;99.90;;;11.85;79.95;101685.50;5055768;28;20215;-71
2021/10/19 02:45:31;;;;;;;24.83;11.55;;;11.30;99.90;;;11.85;79.69;101675.88;5061421;28;20601;-72
2021/10/19 02:47:59;;;;;;;23.95;11.55;;;11.30;99.90;;;11.85;79.61;101686.38;5063784;28;20601;-72
2021/10/19 02:50:25;;;;;;;23.48;10.90;;;11.30;99.90;;;11.85;79.76;101675.00;5065284;28;20196;-71
2021/10/19 02:52:52;;;;;;;23.02;11.43;;;11.30;99.90;;;11.83;79.86;101675.06;5077016;28;20244;-71
2021/10/19 02:55:19;;;;;;;21.25;11.18;;;11.30;99.90;;;11.83;79.75;101685.53;5069281;28;20212;-73
2021/10/19 02:57:47;;;;;;;21.52;10.25;;;11.30;99.90;;;11.83;79.78;101692.53;5057051;28;20197;-71
2021/10/19 03:00:16;;;;;;;23.52;10.85;;;11.30;99.90;;;11.83;79.70;101687.31;5066642;28;20708;-72
2021/10/19 03:02:43;;;;;;;22.98;11.48;;;11.20;99.90;;;11.80;79.99;101688.25;5056421;28;20710;-71
2021/10/19 03:05:12;;;;;;;22.70;11.40;;;11.30;99.90;;;11.79;79.77;101685.69;5059124;28;20212;-71
2021/10/19 03:07:38;;;;;;;21.42;10.38;;;11.20;99.90;;;11.78;79.98;101684.81;5076971;28;20188;-72
2021/10/19 03:10:06;;;;;;;20.83;10.60;;;11.20;99.90;;;11.76;80.08;101670.88;5052286;28;20189;-72
2021/10/19 03:12:33;;;;;;;22.67;11.05;;;11.20;99.90;;;11.77;80.03;101661.25;5069140;28;20203;-72
2021/10/19 03:15:00;;;;;;;24.45;12.13;;;11.20;99.90;;;11.77;80.11;101664.72;5065105;28;20211;-72
2021/10/19 03:17:27;;;;;;;21.52;10.73;;;11.20;99.90;;;11.75;80.29;101657.81;5058731;28;20727;-72
2021/10/19 03:19:54;;;;;;;22.08;11.25;;;11.20;99.90;;;11.73;80.25;101644.75;5061400;28;20207;-71
2021/10/19 03:22:22;;;;;;;24.27;11.43;;;11.20;99.90;;;11.73;80.03;101649.13;5052343;28;20235;-73
2021/10/19 03:24:49;;;;;;;23.95;12.38;;;11.20;99.90;;;11.72;80.54;101653.50;5071820;28;20211;-72
2021/10/19 03:27:16;;;;;;;21.83;11.38;;;11.20;99.90;;;11.73;80.65;101647.38;5071911;28;20468;-72
2021/10/19 03:29:43;;;;;;;25.10;11.02;;;11.20;99.90;;;11.71;80.45;101646.53;5071498;28;20635;-73
2021/10/19 03:32:10;;;;;;;24.20;11.98;;;11.10;99.90;;;11.71;80.51;101646.53;5066606;28;20192;-73
2021/10/19 03:34:38;;;;;;;23.63;11.73;;;11.20;99.90;;;11.73;80.65;101655.22;5064889;28;20208;-74
2021/10/19 03:37:06;;;;;;;22.45;11.18;;;11.20;99.90;;;11.75;80.71;101663.91;5072218;28;20245;-72
2021/10/19 03:39:34;;;;;;;22.42;12.20;;;11.20;99.90;;;11.77;80.40;101671.75;5064611;28;20215;-72
2021/10/19 03:42:01;;;;;;;24.02;11.77;;;11.20;99.90;;;11.74;80.59;101670.03;5074579;28;20270;-72
2021/10/19 03:44:28;;;;;;;23.92;12.13;;;11.20;99.90;;;11.74;80.66;101675.28;5064461;28;20211;-73
2021/10/19 03:46:54;;;;;;;22.00;10.38;;;11.20;99.90;;;11.74;80.49;101661.34;5078861;28;20602;-74
2021/10/19 03:49:21;;;;;;;21.58;11.65;;;11.20;99.90;;;11.72;80.76;101648.25;5064080;28;20204;-74
2021/10/19 03:51:48;;;;;;;23.27;11.30;;;11.10;99.90;;;11.71;80.74;101657.03;5068501;28;20237;-74
2021/10/19 03:54:14;;;;;;;22.88;11.63;;;11.10;99.90;;;11.71;80.93;101662.28;5065793;28;20216;-73
2021/10/19 03:56:43;;;;;;;22.48;10.60;;;11.10;99.90;;;11.70;80.76;101647.44;5068999;28;20200;-72
2021/10/19 03:59:09;;;;;;;23.08;11.23;;;11.10;99.90;;;11.68;80.88;101651.00;5082300;28;20239;-72
2021/10/19 04:01:37;;;;;;;27.17;11.88;;;11.10;99.90;;;11.66;80.80;101651.03;5076796;28;20212;-72
2021/10/19 04:04:05;;;;;;;25.40;11.82;;;11.10;99.90;;;11.65;81.08;101651.97;5068117;28;20212;-72
2021/10/19 04:06:31;;;;;;;25.77;12.43;;;11.10;99.90;;;11.65;81.11;101656.34;5059443;28;20681;-73
2021/10/19 04:08:58;;;;;;;23.98;11.35;;;11.10;99.90;;;11.64;81.01;101659.88;5073992;28;20192;-72
2021/10/19 04:11:25;;;;;;;24.85;12.15;;;11.10;99.90;;;11.63;81.29;101663.34;5076793;28;20208;-71
2021/10/19 04:13:53;;;;;;;23.88;11.18;;;11.00;99.90;;;11.62;81.11;101656.38;5069371;28;20216;-72
2021/10/19 04:16:20;;;;;;;24.20;12.30;;;11.00;99.90;;;11.59;81.36;101661.72;5063554;28;20204;-73
2021/10/19 04:18:47;;;;;;;24.48;11.35;;;11.00;99.90;;;11.55;81.28;101658.31;5075103;28;20199;-72
2021/10/19 04:21:14;;;;;;;23.05;11.68;;;11.00;99.90;;;11.55;81.57;101660.94;5073624;28;20270;-72
2021/10/19 04:23:40;;;;;;;23.33;11.63;;;11.00;99.90;;;11.54;81.51;101653.94;5067326;28;20216;-73
2021/10/19 04:26:07;;;;;;;27.13;12.43;;;11.00;99.90;;;11.52;81.68;101661.00;5061124;28;20193;-71
2021/10/19 04:28:34;;;;;;;26.52;12.25;;;11.00;99.90;;;11.52;81.61;101661.00;5069038;28;20200;-72
2021/10/19 04:31:02;;;;;;;23.90;12.02;;;11.00;99.90;;;11.54;81.59;101663.59;5063713;28;20225;-72
2021/10/19 04:33:29;;;;;;;25.13;12.43;;;11.00;99.90;;;11.55;81.65;101654.81;5078743;28;20628;-72
2021/10/19 04:35:56;;;;;;;24.75;10.93;;;11.00;99.90;;;11.57;81.93;101653.88;5074202;28;20188;-72
2021/10/19 04:38:23;;;;;;;29.25;12.27;;;11.00;99.90;;;11.58;81.76;101644.25;5064430;28;20242;-72
2021/10/19 04:40:49;;;;;;;22.90;12.05;;;11.00;99.90;;;11.58;81.57;101639.88;5061360;28;20209;-73
2021/10/19 04:43:16;;;;;;;26.48;13.40;;;11.00;99.90;;;11.58;81.79;101641.63;5066562;28;20196;-72
2021/10/19 04:45:43;;;;;;;23.00;11.95;;;11.00;99.90;;;11.58;81.80;101620.66;5070918;28;20711;-72
2021/10/19 04:48:13;;;;;;;25.85;12.93;;;11.00;99.90;;;11.56;81.65;101612.84;5065405;28;20192;-73
2021/10/19 04:50:40;;;;;;;29.40;14.68;;;10.90;99.90;;;11.54;81.90;101606.78;5072532;28;20666;-72
2021/10/19 04:53:06;;;;;;;26.88;13.88;;;10.90;99.90;;;11.53;82.15;101607.69;5061011;28;20245;-72
2021/10/19 04:55:33;;;;;;;28.35;14.52;;;10.90;99.90;;;11.52;82.33;101613.81;5087280;28;20184;-72
2021/10/19 04:58:00;;;;;;;29.13;13.85;;;10.90;99.90;;;11.51;82.32;101596.38;5067375;28;20189;-70
2021/10/19 05:00:27;;;;;;;28.00;13.63;;;10.90;99.90;;;11.50;82.34;101602.53;5080694;28;20694;-74
2021/10/19 05:02:57;;;;;;;27.38;13.15;;;10.80;99.90;;;11.48;82.47;101599.09;5061801;28;20204;-73
2021/10/19 05:05:26;;;;;;;25.13;13.38;;;10.80;99.90;;;11.44;82.63;101605.28;5088859;28;20216;-72
2021/10/19 05:07:54;;;;;;;27.23;13.10;;;10.80;99.90;;;11.39;82.44;101613.28;5063983;28;20184;-71
2021/10/19 05:10:21;;;;;;;30.20;13.68;;;10.70;99.90;;;11.39;82.54;101609.81;5052004;28;20655;-72
2021/10/19 05:12:49;;;;;;;28.27;13.70;;;10.70;99.90;;;11.35;82.77;101608.19;5058195;28;20196;-72
2021/10/19 05:15:17;;;;;;;30.88;12.75;;;10.70;99.90;;;11.36;82.92;101605.50;5066263;28;20265;-71
2021/10/19 05:17:45;;;;;;;26.80;12.80;;;10.70;99.90;;;11.33;82.72;101596.88;5066196;28;20196;-74
2021/10/19 05:20:12;;;;;;;27.25;13.00;;;10.60;99.90;;;11.28;82.66;101598.75;5083708;28;20240;-73
2021/10/19 05:22:40;;;;;;;31.83;13.30;;;10.60;99.90;;;11.28;83.08;101601.38;5064404;28;20200;-73
2021/10/19 05:25:10;;;;;;;25.05;12.77;;;10.60;99.90;;;11.27;83.10;101597.88;5072604;28;20243;-72
2021/10/19 05:27:38;;;;;;;27.52;13.10;;;10.60;99.90;;;11.27;83.13;101597.88;5073680;28;20184;-73
2021/10/19 05:30:06;;;;;;;26.88;12.85;;;10.60;99.90;;;11.30;83.16;101600.41;5077802;28;20202;-71
2021/10/19 05:32:33;;;;;;;27.77;13.18;;;10.60;99.90;;;11.30;82.91;101604.81;5073380;28;20189;-72
2021/10/19 05:35:00;;;;;;;27.35;12.95;;;10.60;99.90;;;11.32;83.06;101603.00;5069820;28;20209;-70
2021/10/19 05:37:27;;;;;;;27.80;13.45;;;10.60;99.90;;;11.33;83.11;101600.38;5070007;28;20222;-70
2021/10/19 05:39:55;;;;;;;25.10;13.07;;;10.70;99.90;;;11.36;82.87;101597.66;5071382;28;20203;-71
2021/10/19 05:42:22;;;;;;;26.40;12.45;;;10.70;99.90;;;11.37;82.79;101609.84;5071447;28;20246;-72
2021/10/19 05:44:48;;;;;;;26.95;13.05;;;10.70;99.90;;;11.39;82.61;101622.91;5074337;28;20208;-72
2021/10/19 05:47:15;;;;;;;24.50;12.57;;;10.80;99.90;;;11.39;82.52;101612.41;5074461;28;20195;-70
2021/10/19 05:49:42;;;;;;;27.77;12.68;;;10.80;99.90;;;11.36;82.51;101613.38;5076795;28;20562;-71
2021/10/19 05:52:09;;;;;;;27.67;13.75;;;10.80;99.90;;;11.35;82.50;101622.13;5073076;28;20196;-72
2021/10/19 05:54:36;;;;;;;27.48;13.75;;;10.80;99.90;;;11.36;82.30;101618.63;5076460;28;20631;-71
2021/10/19 05:57:04;;;;;;;25.58;12.52;;;10.80;99.90;;;11.40;82.48;101612.38;5065719;28;20234;-73
2021/10/19 05:59:31;;;;;;;32.53;12.60;;;10.80;99.90;;;11.42;82.28;101617.56;5078899;28;20195;-72
2021/10/19 06:01:59;;;;;;;26.00;12.70;;;10.80;99.90;;;11.46;82.41;101628.84;5071937;28;22222;-72
2021/10/19 06:04:26;;;;;;;29.98;13.68;;;10.90;99.90;;;11.45;82.30;101625.38;5076859;28;20258;-72
2021/10/19 06:06:55;;;;;;;28.75;13.00;;;10.90;99.90;;;11.47;82.18;101613.06;5073142;28;20278;-73
2021/10/19 06:09:22;;;;;;;27.23;12.90;;;11.00;99.90;;;11.49;82.05;101606.03;5067790;28;20189;-72
2021/10/19 06:11:50;;;;;;;27.38;13.05;;;10.90;99.90;;;11.50;81.94;101601.66;5063628;28;20617;-74
2021/10/19 06:14:18;;;;;;;27.33;13.38;;;11.00;99.90;;;11.50;81.92;101612.16;5067747;28;20694;-72
2021/10/19 06:16:45;;;;;;;26.67;13.32;;;11.00;99.90;;;11.51;81.79;101611.22;5066992;28;20176;-72
2021/10/19 06:19:13;;;;;;;29.10;14.13;;;11.00;99.90;;;11.51;81.83;101606.00;5069063;28;20188;-71
2021/10/19 06:21:39;;;;;;;31.25;13.43;;;11.00;99.90;;;11.53;81.79;101604.19;5071079;28;20258;-72
2021/10/19 06:24:07;;;;;;;33.35;13.15;;;11.00;99.90;;;11.58;82.02;101605.78;5062375;28;20566;-72
2021/10/19 06:26:35;;;;;;;25.98;12.25;;;11.10;99.90;;;11.60;81.90;101596.13;5072236;28;20184;-72
2021/10/19 06:29:03;;;;;;;27.95;13.07;;;11.10;99.90;;;11.60;81.66;101606.63;5061138;28;20215;-72
2021/10/19 06:31:31;;;;;;;28.13;13.32;;;11.10;99.90;;;11.62;81.84;101606.56;5067940;28;20188;-71
2021/10/19 06:33:58;;;;;;;24.15;12.57;;;11.10;99.90;;;11.63;81.53;101606.53;5073543;28;20211;-72
2021/10/19 06:36:25;;;;;;;27.77;13.48;;;11.10;99.90;;;11.66;81.57;101622.22;5065307;28;20196;-71
2021/10/19 06:38:52;;;;;;;29.20;13.57;;;11.10;99.90;;;11.67;81.51;101613.44;5067709;28;20573;-71
2021/10/19 06:41:19;;;;;;;30.00;13.55;;;11.20;99.90;;;11.71;81.53;101594.09;5090353;28;20211;-70
2021/10/19 06:43:46;;;;;;;26.15;13.25;;;11.20;99.90;;;11.73;81.34;101607.16;5065467;28;20303;-70
2021/10/19 06:46:13;;;;;;;26.77;12.82;;;11.30;99.90;;;11.75;81.29;101600.13;5057296;28;20258;-71
2021/10/19 06:48:41;;;;;;;30.63;13.40;;;11.30;99.90;;;11.74;81.37;101603.66;5066052;28;20239;-71
2021/10/19 06:51:08;;;;;;;27.90;13.63;;;11.30;99.90;;;11.75;81.28;101608.84;5072744;28;20196;-71
2021/10/19 06:53:37;;;;;;;25.15;12.05;;;11.30;99.90;;;11.74;81.22;101603.66;5065531;28;20208;-71
2021/10/19 06:56:04;;;;;;;29.85;13.35;;;11.30;99.90;;;11.75;81.19;101600.13;5083915;28;20192;-72
2021/10/19 06:58:31;;;;;;;30.23;13.55;;;11.30;99.90;;;11.78;81.21;101600.91;5074949;28;20263;-72
2021/10/19 07:00:59;;;;;;;30.27;13.32;;;11.30;99.90;;;11.82;81.30;101602.50;5071920;28;20208;-72
2021/10/19 07:03:26;;;;;;;27.13;13.23;;;11.40;99.90;;;11.85;81.22;101594.59;5072312;28;20270;-71
2021/10/19 07:05:55;;;;;;;29.27;13.32;;;11.40;99.90;;;11.85;81.01;101596.34;5071458;28;20188;-72
2021/10/19 07:08:22;;;;;;;25.67;12.05;;;11.40;99.90;;;11.86;80.99;101596.28;5053933;28;20206;-72
2021/10/19 07:10:49;;;;;;;29.48;13.90;;;11.50;99.90;;;11.90;80.81;101600.56;5071418;28;20223;-72
2021/10/19 07:13:21;;;;;;;25.83;12.82;;;11.50;99.90;;;11.92;80.94;101600.50;5086855;28;20724;-72
2021/10/19 07:15:50;;;;;;;26.52;12.48;;;11.50;99.90;;;11.94;80.57;101596.09;5070252;28;20199;-72
2021/10/19 07:18:17;;;;;;;26.15;13.02;;;11.50;99.90;;;11.97;80.66;101601.22;5068232;28;20279;-72
2021/10/19 07:20:43;;;;;;;29.58;13.57;;;11.50;99.90;;;11.99;80.69;101605.50;5075379;28;20270;-73
2021/10/19 07:23:11;;;;;;;29.58;13.73;;;11.50;99.90;;;11.99;80.42;101600.28;5080888;28;20189;-72
2021/10/19 07:25:38;;;;;;;32.35;14.35;;;11.50;99.90;;;12.02;80.36;101605.41;5072161;28;20192;-72
2021/10/19 07:28:06;;;;;;;27.05;13.02;;;11.60;99.90;;;12.05;80.25;101594.88;5063925;28;20214;-72
2021/10/19 07:30:32;;;;;;;26.85;12.52;;;11.60;99.90;;;12.07;80.05;101597.44;5060438;28;20246;-75
2021/10/19 07:32:59;;;;;;;28.65;12.93;;;11.60;99.90;;;12.08;80.23;101607.00;5065595;28;20542;-72
2021/10/19 07:35:26;;;;;;;28.17;13.25;;;11.70;99.90;;;12.08;80.41;101605.25;5062454;28;20296;-72
2021/10/19 07:37:53;;;;;;;26.48;13.25;;;11.70;99.90;;;12.07;80.43;101608.78;5067705;28;20187;-71
2021/10/19 07:40:22;;;;;;;29.95;13.02;;;11.70;99.90;;;12.10;80.35;101606.09;5058067;28;20200;-72
2021/10/19 07:42:50;;;;;;;28.00;12.90;;;11.80;99.90;;;12.14;80.34;101610.31;5074139;28;20288;-71
2021/10/19 07:45:20;;;;;;;26.05;13.10;;;11.80;99.90;;;12.16;80.44;101602.41;5080095;28;20218;-71
2021/10/19 07:47:48;;;;;;;27.50;12.85;;;11.80;99.90;;;12.18;80.25;101593.59;5069637;28;20192;-71
2021/10/19 07:50:19;;;;;;;27.80;12.93;;;11.90;99.90;;;12.21;80.37;101590.88;5059595;28;20200;-71
2021/10/19 07:52:48;;;;;;;30.83;13.32;;;11.90;99.90;;;12.28;79.81;101578.41;5064610;28;20196;-71
2021/10/19 07:55:15;;;;;;;27.38;13.25;;;11.90;99.90;;;12.30;79.70;101579.22;5061667;28;20261;-70
2021/10/19 07:57:48;;;;;;;29.30;13.05;;;11.90;99.90;;;12.33;79.89;101580.00;5083965;28;20575;-70
2021/10/19 08:00:17;;;;;;;27.05;12.70;;;12.00;99.90;;;12.38;79.81;101569.34;5073201;28;20250;-70
2021/10/19 08:02:44;;;;;;;31.10;12.82;;;12.10;99.90;;;12.46;79.82;101581.34;5073453;28;20215;-70
2021/10/19 08:05:14;;;;;;;27.00;12.63;;;12.20;99.90;;;12.52;79.41;101580.28;5072284;28;20700;-70
2021/10/19 08:07:41;;;;;;;26.85;13.00;;;12.20;99.90;;;12.58;79.34;101591.47;5069849;28;20275;-72
2021/10/19 08:10:10;;;;;;;23.60;12.40;;;12.30;99.90;;;12.64;79.44;101591.25;5072878;28;20677;-68
2021/10/19 08:12:37;;;;;;;28.08;13.00;;;12.40;99.90;;;12.71;79.26;101596.31;5066602;28;20261;-72
2021/10/19 08:15:07;;;;;;;30.73;13.40;;;12.40;99.90;;;12.76;78.95;101605.75;5072210;28;20716;-70
2021/10/19 08:17:34;;;;;;;26.98;12.50;;;12.50;99.90;;;12.79;78.79;101600.44;5090869;28;20200;-71
2021/10/19 08:20:01;;;;;;;24.42;12.35;;;12.50;99.90;;;12.81;78.67;101601.22;5080142;28;20188;-69
2021/10/19 08:22:31;;;;;;;26.20;12.50;;;12.60;99.90;;;12.87;78.75;101613.28;5068768;28;20223;-71
2021/10/19 08:25:01;;;;;;;27.20;12.63;;;12.60;99.90;;;12.93;78.30;101597.34;5067102;28;20199;-73
2021/10/19 08:27:28;;;;;;;25.52;12.27;;;12.70;99.90;;;12.96;78.18;101594.63;5072290;28;20188;-70
2021/10/19 08:29:55;;;;;;;26.05;12.30;;;12.70;99.90;;;12.99;78.23;101586.63;5070202;28;20187;-71
2021/10/19 08:32:23;;;;;;;25.25;12.65;;;12.70;99.90;;;12.99;78.09;101590.13;5063923;28;20211;-71
2021/10/19 08:34:49;;;;;;;27.33;12.90;;;12.70;99.90;;;12.97;78.04;101593.69;5063540;28;20222;-70
2021/10/19 08:37:16;;;;;;;31.50;13.43;;;12.70;99.90;;;12.97;78.11;101598.94;5070732;28;20204;-72
2021/10/19 08:39:44;;;;;;;27.73;12.40;;;12.70;99.90;;;12.98;78.00;101582.28;5066115;28;20258;-70
2021/10/19 08:42:13;;;;;;;26.52;12.52;;;12.70;99.90;;;13.03;77.87;101588.28;5069368;28;20286;-71
2021/10/19 08:44:41;;;;;;;24.90;12.02;;;12.70;99.90;;;13.09;77.79;101590.69;5069935;28;20216;-71
2021/10/19 08:47:08;;;;;;;24.85;12.00;;;12.80;99.90;;;13.15;77.56;101578.22;5071956;28;20237;-71
2021/10/19 08:49:36;;;;;;;26.52;13.55;;;12.80;99.90;;;13.22;77.73;101573.59;5065360;28;20755;-73
2021/10/19 08:52:03;;;;;;;26.50;11.98;;;12.90;99.90;;;13.27;77.36;101577.78;5066848;28;20576;-74
2021/10/19 08:54:30;;;;;;;29.05;12.57;;;13.00;99.90;;;13.33;77.06;101576.72;5069120;28;20219;-76
2021/10/19 08:56:57;;;;;;;27.48;12.45;;;13.00;99.90;;;13.36;77.29;101580.09;5077485;28;20195;-75
2021/10/19 08:59:25;;;;;;;24.67;12.10;;;13.10;99.90;;;13.43;76.93;101570.22;5064789;28;20188;-74
2021/10/19 09:01:57;;;;;;;25.23;12.32;;;13.10;99.90;;;13.47;76.90;101563.94;5072838;28;20722;-73
2021/10/19 09:04:28;;;;;;;25.48;12.55;;;13.20;99.90;;;13.53;76.69;101569.00;5074033;28;20287;-74
2021/10/19 09:06:58;;;;;;;26.00;12.27;;;13.30;99.90;;;13.58;76.40;101572.31;5070047;28;20643;-73
2021/10/19 09:09:27;;;;;;;26.30;12.18;;;13.30;99.90;;;13.62;76.34;101574.78;5068735;28;20199;-74
2021/10/19 09:11:57;;;;;;;23.25;11.55;;;13.40;99.90;;;13.65;76.03;101572.03;5067349;28;20218;-74
2021/10/19 09:14:31;;;;;;;23.17;11.95;;;13.40;99.90;;;13.70;76.11;101561.31;5069576;28;20217;-75
2021/10/19 09:17:00;;;;;;;25.38;12.40;;;13.50;99.90;;;13.72;75.56;101554.25;5078171;28;20200;-74
2021/10/19 09:19:28;;;;;;;27.00;11.80;;;13.50;99.90;;;13.77;75.62;101568.09;5076915;28;20239;-74
2021/10/19 09:22:02;;;;;;;22.90;11.70;;;13.60;99.90;;;13.83;75.12;101565.25;5067170;28;20215;-74
2021/10/19 09:24:33;;;;;;;23.65;11.45;;;13.60;99.90;;;13.89;75.40;101557.09;5073486;28;20215;-74
2021/10/19 09:27:02;;;;;;;25.73;11.18;;;13.70;99.90;;;13.93;75.05;101558.72;5064845;28;20203;-74
2021/10/19 09:29:34;;;;;;;22.55;11.10;;;13.70;99.90;;;13.97;75.12;101555.03;5056571;28;20609;-76
2021/10/19 09:32:05;;;;;;;24.75;10.95;;;13.80;99.90;;;14.01;74.78;101542.63;5059528;28;20992;-74
2021/10/19 09:34:34;;;;;;;24.52;11.82;;;13.80;99.90;;;14.04;74.84;101545.13;5067218;28;20299;-74
2021/10/19 09:37:04;;;;;;;20.50;10.65;;;13.90;99.90;;;14.10;74.91;101545.75;5068146;28;20574;-75
2021/10/19 09:39:37;;;;;;;24.50;11.65;;;13.90;99.90;;;14.17;74.82;101534.06;5067931;28;20651;-74
2021/10/19 09:42:07;;;;;;;23.20;11.30;;;14.00;99.90;;;14.24;74.63;101547.84;5076678;28;20200;-74
2021/10/19 09:44:35;;;;;;;23.88;11.27;;;14.10;99.90;;;14.27;74.53;101538.09;5065397;28;20716;-73
2021/10/19 09:47:03;;;;;;;26.52;10.88;;;14.10;99.90;;;14.29;74.76;101536.25;5069037;28;20200;-74
2021/10/19 09:49:32;;;;;;;24.27;11.60;;;14.20;99.90;;;14.35;74.47;101535.16;5055928;28;20219;-74
2021/10/19 09:52:00;;;;;;;23.83;11.57;;;14.20;99.90;;;14.37;74.51;101526.28;5065423;28;20204;-75
2021/10/19 09:54:31;;;;;;;24.35;11.60;;;14.20;99.90;;;14.39;74.54;101521.81;5071734;28;20292;-73
2021/10/19 09:56:59;;;;;;;23.67;11.30;;;14.20;99.90;;;14.41;74.24;101525.25;5072089;28;20603;-74
2021/10/19 09:59:27;;;;;;;22.65;11.20;;;14.20;99.90;;;14.42;74.14;101511.16;5061856;28;20207;-74
2021/10/19 10:01:55;;;;;;;22.48;10.93;;;14.20;99.90;;;14.47;74.41;101521.50;5074745;28;20269;-76